Time;durP1;ratioP1;P1;durP2;ratioP2;P2;SDS_P1;SDS_P2;PMS_P1;PMS_P2;Temp;Humidity;BMP_temperature;BMP_pressure;BME280_temperature;BME280_humidity;BME280_pressure;Samples;Min_cycle;Max_cycle;Signal;HPM_P1;HPM_P2
2024/01/07 10:35:45;;;;;;;3.90;2.10;;;;;;;8.24;89.01;99317.59;5047668;27;1466674;-78
2024/01/07 10:38:40;;;;;;;1.48;1.20;;;;;;;8.31;87.52;99311.66;5039039;28;20044;-78
2024/01/07 10:41:34;;;;;;;;;;;;;;;8.30;87.26;99308.16;5033896;28;20053;-77
2024/01/07 10:44:23;;;;;;;2.42;1.52;;;;;;;8.31;88.07;99303.53;5030919;28;19925;-80
2024/01/07 10:47:19;;;;;;;1.70;1.42;;;;;;;8.53;87.55;99314.75;5028538;28;20037;-81
2024/01/07 10:50:15;;;;;;;3.70;1.60;;;;;;;8.86;86.45;99308.47;5030095;28;20045;-80
2024/01/07 10:53:11;;;;;;;2.65;1.52;;;;;;;8.97;86.37;99312.34;5028805;28;20056;-81
2024/01/07 10:56:13;;;;;;;4.15;2.35;;;;;;;9.13;85.15;99307.81;5032680;28;20046;-81
2024/01/07 10:59:08;;;;;;;2.60;1.83;;;;;;;9.17;85.20;99306.00;5039649;28;20437;-81
2024/01/07 11:02:02;;;;;;;13.70;6.72;;;;;;;9.35;85.71;99310.03;5049052;28;20050;-81
2024/01/07 11:05:05;;;;;;;3.45;2.55;;;;;;;9.34;84.19;99307.69;5030288;28;20049;-81
2024/01/07 11:08:07;;;;;;;2.33;1.55;;;;;;;9.09;83.94;99309.63;5034609;28;20041;-80
2024/01/07 11:11:07;;;;;;;1.27;1.05;;;;;;;9.31;84.45;99306.44;5044741;28;20041;-80
2024/01/07 11:13:57;;;;;;;1.75;1.60;;;;;;;9.29;84.22;99303.28;5041741;28;20044;-81
2024/01/07 11:16:49;;;;;;;3.47;1.58;;;;;;;9.39;84.69;99308.25;5037058;28;20045;-80
2024/01/07 11:19:51;;;;;;;3.55;2.03;;;;;;;9.46;85.00;99294.09;5030844;28;20037;-81
2024/01/07 11:22:45;;;;;;;8.85;2.92;;;;;;;9.56;84.57;99287.38;5046315;28;20545;-78
2024/01/07 11:25:41;;;;;;;2.10;1.00;;;;;;;9.34;82.34;99286.78;5043655;28;20045;-81
2024/01/07 11:29:00;;;;;;;2.33;1.55;;;;;;;9.34;80.45;99280.56;5028298;28;20045;-80
2024/01/07 11:31:55;;;;;;;2.70;1.27;;;;;;;9.35;80.25;99282.91;5043478;28;20056;-81
2024/01/07 11:34:50;;;;;;;2.92;1.25;;;;;;;9.41;79.23;99278.03;5027140;28;20430;-79
2024/01/07 11:37:46;;;;;;;2.80;1.10;;;;;;;9.24;79.42;99268.25;5034954;28;20059;-81
2024/01/07 11:40:38;;;;;;;1.08;0.90;;;;;;;9.21;79.98;99268.13;5028828;28;20398;-81
2024/01/07 11:43:28;;;;;;;5.53;2.60;;;;;;;9.33;78.75;99270.84;5043073;28;20045;-79
2024/01/07 11:46:20;;;;;;;3.17;1.70;;;;;;;9.30;79.32;99269.59;5018705;28;20057;-81
2024/01/07 11:49:14;;;;;;;2.97;1.90;;;;;;;9.24;80.04;99259.34;5006753;28;20069;-81
2024/01/07 11:52:09;;;;;;;2.53;1.50;;;;;;;9.32;79.37;99267.34;5033090;28;20061;-80
2024/01/07 11:55:01;;;;;;;6.13;2.28;;;;;;;9.43;78.38;99260.31;5014241;28;20049;-80
2024/01/07 11:57:57;;;;;;;4.65;2.25;;;;;;;9.51;77.40;99261.28;5032016;28;20048;-81
2024/01/07 12:00:44;;;;;;;4.38;2.30;;;;;;;9.49;76.36;99269.00;5029289;28;20057;-81
2024/01/07 12:03:41;;;;;;;27.05;12.15;;;;;;;9.38;76.95;99271.41;5011459;28;20045;-80
2024/01/07 12:06:35;;;;;;;9.35;5.20;;;;;;;9.48;76.39;99270.13;5013109;28;20053;-81
2024/01/07 12:09:30;;;;;;;6.40;2.30;;;;;;;9.34;77.77;99264.28;5032713;28;20038;-81
2024/01/07 12:12:22;;;;;;;2.88;1.52;;;;;;;9.35;77.57;99263.94;5022083;28;20284;-80
2024/01/07 12:15:16;;;;;;;3.30;2.10;;;;;;;9.30;77.89;99263.38;5009151;28;20046;-81
2024/01/07 12:18:11;;;;;;;3.70;1.50;;;;;;;9.23;78.63;99263.16;5008427;28;20053;-80
2024/01/07 12:21:06;;;;;;;0.97;0.87;;;;;;;9.38;78.68;99257.03;5018424;28;20053;-81
2024/01/07 12:23:55;;;;;;;3.47;1.23;;;;;;;9.22;79.37;99254.25;5016681;28;20807;-81
2024/01/07 12:26:47;;;;;;;2.70;1.20;;;;;;;9.16;79.80;99255.59;5012548;28;20109;-81
2024/01/07 12:29:37;;;;;;;2.15;1.40;;;;;;;9.22;79.49;99259.66;5007322;28;20793;-82
2024/01/07 12:32:35;;;;;;;0.98;0.85;;;;;;;9.18;79.78;99247.94;5009035;28;20049;-79
2024/01/07 12:35:30;;;;;;;1.58;1.08;;;;;;;9.27;79.24;99255.94;5007455;28;20528;-80
2024/01/07 12:38:31;;;;;;;2.35;0.90;;;;;;;9.36;77.55;99257.38;5014659;28;20045;-82
2024/01/07 12:41:24;;;;;;;1.25;0.85;;;;;;;9.47;77.71;99256.91;5026374;28;20052;-83
2024/01/07 12:44:18;;;;;;;1.30;1.20;;;;;;;9.45;78.10;99251.81;5014138;28;20049;-80
2024/01/07 12:47:10;;;;;;;1.48;0.98;;;;;;;9.50;78.45;99259.69;5013760;28;20046;-79
2024/01/07 12:50:03;;;;;;;3.67;2.08;;;;;;;9.60;77.53;99250.31;5014478;28;20060;-81
2024/01/07 12:52:55;;;;;;;8.57;4.72;;;;;;;9.56;77.10;99257.53;5015295;28;20045;-81
2024/01/07 12:55:50;;;;;;;7.38;3.92;;;;;;;9.56;76.48;99252.91;5013380;28;20720;-79
2024/01/07 12:58:44;;;;;;;2.03;1.38;;;;;;;9.50;76.09;99253.50;5018777;28;20181;-81
2024/01/07 13:01:36;;;;;;;1.73;1.10;;;;;;;9.51;74.93;99261.28;5026905;28;20048;-80
2024/01/07 13:04:28;;;;;;;3.40;1.98;;;;;;;9.39;76.38;99250.50;5007745;28;20042;-80
2024/01/07 13:07:22;;;;;;;1.73;1.00;;;;;;;9.33;75.39;99251.84;5013639;28;20041;-81
2024/01/07 13:10:14;;;;;;;4.00;1.60;;;;;;;9.33;75.58;99260.78;5018699;28;20417;-81
2024/01/07 13:13:09;;;;;;;6.03;2.67;;;;;;;9.21;78.03;99265.41;5028972;28;20645;-79
2024/01/07 13:16:01;;;;;;;2.93;1.70;;;;;;;9.19;77.16;99267.69;5015159;28;20045;-81
2024/01/07 13:18:56;;;;;;;3.67;2.22;;;;;;;9.18;77.38;99279.69;5009801;28;20296;-80
2024/01/07 13:21:49;;;;;;;7.03;3.38;;;;;;;9.19;78.53;99270.41;5003740;28;20050;-81
2024/01/07 13:24:43;;;;;;;7.53;3.37;;;;;;;9.11;77.49;99274.81;5011894;28;20049;-80
2024/01/07 13:27:42;;;;;;;3.42;1.35;;;;;;;9.22;77.79;99277.84;5024819;28;20272;-82
2024/01/07 13:30:34;;;;;;;4.00;2.30;;;;;;;9.34;78.40;99283.28;5008194;28;20049;-80
2024/01/07 13:33:28;;;;;;;4.87;2.67;;;;;;;9.32;77.42;99282.81;5025188;28;20049;-81
2024/01/07 13:36:23;;;;;;;1.65;1.55;;;;;;;9.27;78.45;99288.47;5008110;28;20410;-80
2024/01/07 13:39:17;;;;;;;0.67;0.60;;;;;;;9.24;76.85;99286.44;5017240;28;20426;-81
2024/01/07 13:42:12;;;;;;;3.47;0.73;;;;;;;9.19;75.24;99283.97;5029802;28;20052;-82
2024/01/07 13:45:04;;;;;;;1.63;0.63;;;;;;;9.11;74.87;99285.66;5015679;28;20300;-79
2024/01/07 13:47:58;;;;;;;1.35;0.90;;;;;;;9.09;75.09;99289.84;4993760;28;20045;-80
2024/01/07 13:50:53;;;;;;;1.55;0.70;;;;;;;9.09;75.57;99295.28;5025159;28;20056;-81
2024/01/07 13:53:45;;;;;;;1.08;0.70;;;;;;;8.91;76.89;99289.28;5001201;28;20053;-82
2024/01/07 13:56:41;;;;;;;1.38;0.82;;;;;;;8.86;77.46;99298.44;5005668;28;20064;-78
2024/01/07 13:59:35;;;;;;;4.18;2.42;;;;;;;8.98;75.87;99303.06;5027270;28;20061;-79
2024/01/07 14:02:27;;;;;;;18.07;3.13;;;;;;;9.03;76.67;99297.44;5004714;28;20049;-81
2024/01/07 14:05:22;;;;;;;7.63;2.42;;;;;;;9.24;76.96;99303.53;5000258;28;20052;-80
2024/01/07 14:08:11;;;;;;;1.45;0.80;;;;;;;9.18;75.62;99310.31;5008403;28;20058;-81
2024/01/07 14:11:06;;;;;;;1.35;0.80;;;;;;;9.05;74.94;99308.72;5005452;28;20049;-79
2024/01/07 14:14:01;;;;;;;1.92;1.13;;;;;;;8.97;75.06;99323.19;5004025;28;20557;-80
2024/01/07 14:16:53;;;;;;;1.58;0.80;;;;;;;8.97;75.18;99323.97;4999865;28;20042;-80
2024/01/07 14:19:52;;;;;;;0.75;0.60;;;;;;;8.94;77.06;99327.34;5002625;28;20057;-78
2024/01/07 14:22:47;;;;;;;9.35;2.45;;;;;;;8.95;79.97;99328.94;5000623;28;20061;-80
2024/01/07 14:25:42;;;;;;;6.05;2.78;;;;;;;9.10;80.41;99321.25;5008199;28;20537;-79
2024/01/07 14:28:36;;;;;;;6.65;2.92;;;;;;;9.10;80.09;99322.03;5003571;28;20076;-81
2024/01/07 14:31:25;;;;;;;3.13;1.15;;;;;;;8.90;80.35;99331.84;5004251;28;20052;-79
2024/01/07 14:34:20;;;;;;;1.95;1.00;;;;;;;8.79;80.05;99330.72;5012308;28;20418;-79
2024/01/07 14:37:15;;;;;;;4.22;1.30;;;;;;;8.88;79.77;99339.56;5012091;28;20074;-80
2024/01/07 14:40:10;;;;;;;1.13;0.80;;;;;;;8.82;79.07;99331.97;5016412;28;20057;-81
2024/01/07 14:43:05;;;;;;;2.13;1.15;;;;;;;8.66;93.46;99336.47;5017655;28;20061;-81
2024/01/07 14:45:57;;;;;;;3.47;0.80;;;;;;;8.50;100.00;99345.22;5012468;28;20812;-81
2024/01/07 14:48:52;;;;;;;0.57;0.50;;;;;;;8.55;80.36;99344.22;5014204;28;20508;-82
2024/01/07 14:51:42;;;;;;;1.00;1.00;;;;;;;8.45;79.62;99350.88;4993317;28;20442;-82
2024/01/07 14:54:35;;;;;;;2.05;1.42;;;;;;;8.29;82.36;99358.00;4993080;28;20049;-82
2024/01/07 14:57:29;;;;;;;2.10;1.10;;;;;;;8.11;84.18;99359.28;4994573;28;20045;-80
2024/01/07 15:00:21;;;;;;;4.10;1.15;;;;;;;8.07;83.67;99361.06;5013042;28;20406;-82
2024/01/07 15:03:15;;;;;;;5.22;1.80;;;;;;;8.19;84.78;99358.41;5010325;28;20041;-81
2024/01/07 15:06:08;;;;;;;4.85;2.75;;;;;;;8.28;85.66;99359.09;5012830;28;20048;-81
2024/01/07 15:09:03;;;;;;;6.55;2.92;;;;;;;8.24;86.15;99360.91;5016116;28;20414;-81
2024/01/07 15:11:58;;;;;;;4.10;1.50;;;;;;;8.26;85.44;99360.59;5026921;28;20052;-80
2024/01/07 15:14:53;;;;;;;5.00;1.55;;;;;;;8.35;85.42;99359.41;5021284;28;20040;-81
2024/01/07 15:17:42;;;;;;;2.10;1.33;;;;;;;8.32;84.55;99365.50;5010078;28;20045;-81
2024/01/07 15:20:35;;;;;;;2.75;1.38;;;;;;;8.38;85.78;99366.84;4998814;28;20042;-81
2024/01/07 15:23:29;;;;;;;0.90;0.60;;;;;;;8.39;85.23;99362.22;5001316;28;20049;-80
2024/01/07 15:26:22;;;;;;;2.28;1.50;;;;;;;8.40;84.37;99374.66;5027409;28;20049;-80
2024/01/07 15:29:14;;;;;;;5.03;2.58;;;;;;;8.25;83.56;99376.03;5030648;28;20414;-81
2024/01/07 15:32:08;;;;;;;81.60;47.47;;;;;;;8.11;84.11;99370.13;5016024;28;20045;-82
2024/01/07 15:35:03;;;;;;;2.17;0.93;;;;;;;8.25;82.05;99370.63;5028804;28;20072;-82
2024/01/07 15:37:58;;;;;;;1.47;1.10;;;;;;;8.28;81.32;99367.25;5020872;28;20152;-82
2024/01/07 15:40:50;;;;;;;0.95;0.80;;;;;;;8.21;79.93;99369.72;5032920;28;20049;-83
2024/01/07 15:43:42;;;;;;;0.82;0.70;;;;;;;8.29;79.66;99373.44;5018447;28;20049;-80
2024/01/07 15:46:37;;;;;;;227.35;134.80;;;;;;;8.30;80.51;99367.75;5014153;28;20053;-82
2024/01/07 15:49:29;;;;;;;0.67;0.57;;;;;;;8.35;80.64;99362.13;5021335;28;20042;-83
2024/01/07 15:52:23;;;;;;;2.70;1.30;;;;;;;8.31;80.36;99372.03;5032792;28;20284;-80
2024/01/07 15:55:16;;;;;;;2.70;1.30;;;;;;;8.27;80.76;99371.09;5006883;28;20029;-81
2024/01/07 15:58:10;;;;;;;1.05;0.90;;;;;;;8.32;81.24;99370.91;5013873;28;20057;-80
2024/01/07 16:00:57;;;;;;;1.52;0.88;;;;;;;8.29;81.35;99370.75;5020648;28;20052;-82
2024/01/07 16:03:45;;;;;;;0.77;0.77;;;;;;;8.36;81.49;99369.13;5014581;28;20041;-80
2024/01/07 16:06:39;;;;;;;1.35;0.98;;;;;;;8.41;82.66;99368.91;5010488;28;20529;-82
2024/01/07 16:09:34;;;;;;;8.88;2.08;;;;;;;8.31;82.77;99377.44;5012908;28;20049;-80
2024/01/07 16:12:26;;;;;;;7.33;2.30;;;;;;;8.25;83.96;99378.75;5015422;28;20045;-80
2024/01/07 16:15:18;;;;;;;2.45;1.58;;;;;;;8.26;83.29;99382.25;5017193;28;20041;-81
2024/01/07 16:18:07;;;;;;;2.85;1.90;;;;;;;8.18;84.24;99378.47;5022010;28;20044;-81
2024/01/07 16:20:56;;;;;;;3.58;2.20;;;;;;;8.28;84.13;99388.91;5003936;28;20045;-82
2024/01/07 16:23:49;;;;;;;3.80;2.30;;;;;;;8.23;84.18;99397.22;5003743;28;20430;-80
2024/01/07 16:26:42;;;;;;;2.67;1.80;;;;;;;8.29;84.83;99406.75;5006618;28;20414;-81
2024/01/07 16:29:34;;;;;;;6.30;2.55;;;;;;;8.22;84.86;99398.38;5029726;28;20049;-80
2024/01/07 16:32:29;;;;;;;1.65;0.85;;;;;;;8.23;83.28;99401.88;5019194;28;20049;-80
2024/01/07 16:35:21;;;;;;;3.17;1.23;;;;;;;8.31;83.04;99415.38;5014742;28;20041;-79
2024/01/07 16:38:15;;;;;;;4.60;2.67;;;;;;;8.29;82.85;99409.44;5012841;28;20288;-83
2024/01/07 16:41:08;;;;;;;3.75;2.40;;;;;;;8.19;83.61;99415.25;5014726;28;20049;-83
2024/01/07 16:44:02;;;;;;;6.55;3.05;;;;;;;8.51;83.19;99419.97;5012211;28;20053;-81
2024/01/07 16:46:57;;;;;;;5.37;2.93;;;;;;;8.64;82.83;99428.13;5011321;28;20049;-80
2024/01/07 16:49:52;;;;;;;13.10;2.63;;;;;;;8.68;82.35;99423.66;5009336;28;20521;-79
2024/01/07 16:52:46;;;;;;;6.20;2.47;;;;;;;8.73;82.49;99432.34;5037053;28;20272;-79
2024/01/07 16:55:38;;;;;;;6.93;4.13;;;;;;;8.81;82.49;99436.88;5036904;28;20048;-82
2024/01/07 16:58:30;;;;;;;8.60;4.70;;;;;;;8.88;82.59;99433.63;5023009;28;20051;-80
2024/01/07 17:01:25;;;;;;;13.20;7.40;;;;;;;8.86;83.67;99435.88;5020196;28;20045;-80
2024/01/07 17:04:19;;;;;;;9.60;5.85;;;;;;;8.93;83.99;99447.78;5018921;28;20843;-81
2024/01/07 17:07:12;;;;;;;18.98;11.48;;;;;;;8.97;84.17;99451.41;5020689;28;20105;-81
2024/01/07 17:10:06;;;;;;;21.43;12.27;;;;;;;8.99;84.06;99442.91;5007064;28;20057;-80
2024/01/07 17:13:01;;;;;;;11.10;7.60;;;;;;;8.99;84.49;99448.31;5016195;28;20304;-79
2024/01/07 17:15:54;;;;;;;9.60;7.07;;;;;;;9.02;84.85;99445.75;5015620;28;20044;-82
2024/01/07 17:18:46;;;;;;;13.98;8.85;;;;;;;9.00;84.59;99441.78;5015760;28;20406;-80
2024/01/07 17:21:36;;;;;;;14.52;9.43;;;;;;;8.98;84.66;99446.78;5021825;28;20049;-82
2024/01/07 17:24:29;;;;;;;15.82;9.52;;;;;;;9.09;84.61;99460.69;5016711;28;20522;-82
2024/01/07 17:27:21;;;;;;;14.27;9.43;;;;;;;9.15;84.86;99451.97;5011441;28;20049;-81
2024/01/07 17:30:15;;;;;;;11.90;6.73;;;;;;;9.17;84.21;99457.88;5022287;28;20044;-82
2024/01/07 17:33:08;;;;;;;15.23;9.02;;;;;;;9.23;83.94;99464.66;5030371;28;20045;-80
2024/01/07 17:36:03;;;;;;;13.13;9.00;;;;;;;9.22;84.01;99454.94;5013150;28;20057;-79
2024/01/07 17:38:52;;;;;;;12.98;8.38;;;;;;;9.24;83.19;99455.41;5029917;28;20100;-81
2024/01/07 17:41:45;;;;;;;14.95;8.95;;;;;;;9.27;84.20;99460.16;5014435;28;20041;-82
2024/01/07 17:44:34;;;;;;;17.42;10.15;;;;;;;9.26;84.16;99450.41;5010478;28;20057;-83
2024/01/07 17:47:24;;;;;;;16.83;9.63;;;;;;;9.21;84.87;99455.28;5014545;28;20049;-81
2024/01/07 17:50:13;;;;;;;14.63;9.70;;;;;;;9.33;83.63;99456.09;5012555;28;20068;-82
2024/01/07 17:53:06;;;;;;;13.15;8.88;;;;;;;9.41;82.83;99465.25;5017383;28;20044;-80
2024/01/07 17:56:00;;;;;;;24.58;13.93;;;;;;;9.44;82.18;99467.31;5022271;28;20048;-79
2024/01/07 17:58:55;;;;;;;14.87;9.93;;;;;;;9.49;81.99;99471.72;5011866;28;20105;-81
2024/01/07 18:01:52;;;;;;;13.37;9.40;;;;;;;9.45;82.19;99477.00;5010569;28;20280;-81
2024/01/07 18:04:50;;;;;;;17.52;12.75;;;;;;;9.53;81.68;99483.47;5015295;28;20410;-81
2024/01/07 18:07:40;;;;;;;16.92;9.05;;;;;;;9.49;82.00;99480.66;5018299;28;20044;-82
2024/01/07 18:10:32;;;;;;;11.65;8.45;;;;;;;9.49;81.42;99482.56;5007182;28;20049;-83
2024/01/07 18:13:25;;;;;;;13.95;8.35;;;;;;;9.50;80.88;99481.44;5011631;28;20052;-82
2024/01/07 18:16:20;;;;;;;13.55;8.93;;;;;;;9.52;81.17;99492.72;5010886;28;20037;-83
2024/01/07 18:19:12;;;;;;;12.75;7.85;;;;;;;9.58;80.45;99485.97;5020144;28;20049;-82
2024/01/07 18:22:04;;;;;;;12.90;9.30;;;;;;;9.61;79.91;99491.50;5020867;28;20049;-82
2024/01/07 18:24:58;;;;;;;14.37;9.03;;;;;;;9.59;80.41;99496.47;5014647;28;20048;-83
2024/01/07 18:27:53;;;;;;;10.32;6.93;;;;;;;9.52;78.85;99490.00;5016195;28;20056;-81
2024/01/07 18:30:45;;;;;;;13.88;8.13;;;;;;;9.52;80.41;99488.09;5032696;28;20050;-83
2024/01/07 18:33:39;;;;;;;12.52;7.55;;;;;;;9.49;79.23;99488.00;5023242;28;20044;-83
2024/01/07 18:36:32;;;;;;;10.33;6.07;;;;;;;9.47;79.19;99487.53;5012361;28;20537;-82
2024/01/07 18:39:19;;;;;;;17.73;8.95;;;;;;;9.47;78.44;99487.53;5013636;28;20319;-81
2024/01/07 18:42:10;;;;;;;10.55;7.25;;;;;;;9.45;78.44;99487.84;5003427;28;20045;-80
2024/01/07 18:45:02;;;;;;;9.25;6.25;;;;;;;9.45;77.91;99483.22;5017561;28;20049;-80
2024/01/07 18:47:53;;;;;;;5.38;4.07;;;;;;;9.51;76.90;99499.28;5004856;28;20041;-81
2024/01/07 18:50:48;;;;;;;7.03;5.05;;;;;;;9.42;76.66;99492.03;5023875;28;20045;-82
2024/01/07 18:53:46;;;;;;;8.03;4.93;;;;;;;9.45;75.94;99499.50;5016112;28;20065;-81
2024/01/07 18:56:38;;;;;;;8.90;3.55;;;;;;;9.43;76.45;99509.91;5031565;28;20044;-81
2024/01/07 18:59:32;;;;;;;9.13;5.37;;;;;;;9.43;76.29;99512.63;5008963;28;20053;-80
2024/01/07 19:02:27;;;;;;;11.50;5.93;;;;;;;9.45;76.10;99509.56;5011449;28;20053;-80
2024/01/07 19:05:19;;;;;;;4.47;3.03;;;;;;;9.53;74.63;99516.03;5005496;28;20070;-80
2024/01/07 19:08:16;;;;;;;5.00;3.80;;;;;;;9.63;72.82;99515.59;5007091;28;20053;-80
2024/01/07 19:11:09;;;;;;;6.63;4.57;;;;;;;9.61;71.82;99524.06;5006565;28;20415;-79
2024/01/07 19:14:02;;;;;;;6.82;3.92;;;;;;;9.67;72.31;99532.78;5031676;28;20045;-81
2024/01/07 19:16:56;;;;;;;6.30;4.50;;;;;;;9.72;72.23;99525.22;5013878;28;20053;-81
2024/01/07 19:19:51;;;;;;;4.35;2.58;;;;;;;9.63;72.29;99532.66;5036086;28;20057;-80
2024/01/07 19:22:43;;;;;;;4.70;2.60;;;;;;;9.65;71.75;99533.09;5002997;28;20057;-79
2024/01/07 19:25:35;;;;;;;3.95;1.75;;;;;;;9.68;71.37;99539.78;5005592;28;20493;-79
2024/01/07 19:28:30;;;;;;;4.75;2.13;;;;;;;9.64;71.44;99545.13;5013667;28;20117;-78
2024/01/07 19:31:25;;;;;;;3.38;1.77;;;;;;;9.69;70.18;99546.81;5010973;28;20045;-80
2024/01/07 19:34:17;;;;;;;8.53;2.10;;;;;;;9.74;70.27;99544.69;5015827;28;20049;-80
2024/01/07 19:37:09;;;;;;;3.00;2.05;;;;;;;9.79;70.26;99551.81;5016814;28;20053;-77
2024/01/07 19:39:59;;;;;;;3.97;2.00;;;;;;;9.77;69.68;99564.91;5021022;28;20057;-82
2024/01/07 19:42:54;;;;;;;3.95;3.53;;;;;;;9.75;68.67;99565.22;5038245;28;20049;-79
2024/01/07 19:45:44;;;;;;;4.07;2.45;;;;;;;9.70;67.26;99572.84;5018774;28;20700;-82
2024/01/07 19:48:38;;;;;;;3.92;2.72;;;;;;;9.68;66.26;99572.38;5014768;28;20521;-81
2024/01/07 19:51:30;;;;;;;5.28;3.50;;;;;;;9.79;66.78;99579.75;5027708;28;20057;-81
2024/01/07 19:54:24;;;;;;;3.97;2.30;;;;;;;9.62;67.55;99576.41;5025710;28;20045;-81
2024/01/07 19:57:14;;;;;;;4.18;2.72;;;;;;;9.63;68.20;99586.16;5014324;28;20044;-81
2024/01/07 19:59:59;;;;;;;4.55;2.70;;;;;;;9.52;68.76;99585.78;5024781;28;20416;-80
2024/01/07 20:02:54;;;;;;;6.25;3.03;;;;;;;9.77;68.31;99581.19;5013849;28;20121;-82
2024/01/07 20:05:46;;;;;;;4.53;2.45;;;;;;;9.58;69.64;99589.88;5029992;28;20045;-80
2024/01/07 20:08:40;;;;;;;6.43;3.63;;;;;;;9.54;70.11;99594.41;5022841;28;20069;-81
2024/01/07 20:11:32;;;;;;;4.20;2.58;;;;;;;9.80;69.40;99594.13;5028735;28;20540;-80
2024/01/07 20:14:24;;;;;;;4.27;2.53;;;;;;;9.47;71.15;99594.13;5022416;28;20064;-78
2024/01/07 20:17:19;;;;;;;7.55;4.55;;;;;;;9.42;71.89;99606.00;5034627;28;20364;-79
2024/01/07 20:20:15;;;;;;;6.57;2.10;;;;;;;8.98;74.17;99604.81;5034494;28;20057;-79
2024/01/07 20:23:10;;;;;;;20.45;6.68;;;;;;;8.95;74.87;99616.31;5021180;28;20048;-80
2024/01/07 20:26:04;;;;;;;5.77;2.93;;;;;;;9.00;75.45;99615.31;5026302;28;20046;-82
2024/01/07 20:28:57;;;;;;;6.40;3.87;;;;;;;9.00;75.64;99618.81;5018643;28;20280;-79
2024/01/07 20:31:50;;;;;;;8.73;4.60;;;;;;;9.23;76.43;99627.41;5010031;28;20105;-79
2024/01/07 20:34:43;;;;;;;10.55;5.40;;;;;;;9.56;75.54;99623.91;5032322;28;20044;-81
2024/01/07 20:37:35;;;;;;;11.18;6.32;;;;;;;9.85;75.17;99627.25;5015965;28;20048;-81
2024/01/07 20:40:22;;;;;;;7.85;4.22;;;;;;;9.96;74.04;99627.59;5013896;28;20044;-81
2024/01/07 20:43:17;;;;;;;8.88;4.57;;;;;;;10.15;73.38;99635.22;5019173;28;20060;-80
2024/01/07 20:46:12;;;;;;;3.83;2.47;;;;;;;9.30;75.02;99641.22;5029439;28;20359;-81
2024/01/07 20:49:07;;;;;;;7.28;3.67;;;;;;;9.50;75.39;99634.16;5033574;28;20052;-80
2024/01/07 20:51:59;;;;;;;8.77;4.17;;;;;;;9.81;74.39;99639.91;5017150;28;20123;-79
2024/01/07 20:54:59;;;;;;;5.72;3.60;;;;;;;9.92;73.07;99629.41;5005387;28;20049;-79
2024/01/07 20:57:48;;;;;;;9.53;3.10;;;;;;;9.96;72.85;99638.47;5029440;28;20053;-80
2024/01/07 21:00:38;;;;;;;7.78;3.92;;;;;;;10.13;72.26;99646.41;5023206;28;20300;-81
2024/01/07 21:03:33;;;;;;;9.95;3.20;;;;;;;10.10;71.95;99647.09;5009591;28;20045;-81
2024/01/07 21:06:25;;;;;;;5.38;2.92;;;;;;;10.03;73.62;99649.56;5016914;28;20040;-80
2024/01/07 21:09:17;;;;;;;5.25;3.17;;;;;;;10.09;73.17;99655.59;5013454;28;20041;-80
2024/01/07 21:12:12;;;;;;;8.32;3.88;;;;;;;10.12;73.16;99654.91;5004100;28;20045;-79
2024/01/07 21:15:06;;;;;;;8.23;4.53;;;;;;;10.27;74.15;99651.53;5006597;28;20048;-80
2024/01/07 21:18:01;;;;;;;6.43;3.83;;;;;;;9.68;73.44;99654.59;5016018;28;20121;-80
2024/01/07 21:20:56;;;;;;;3.95;2.35;;;;;;;9.76;74.67;99670.00;5032709;28;20045;-81
2024/01/07 21:23:48;;;;;;;5.07;2.77;;;;;;;9.88;74.43;99663.81;5017952;28;20045;-80
2024/01/07 21:26:45;;;;;;;4.30;2.72;;;;;;;9.77;75.55;99673.50;5033105;28;20531;-80
2024/01/07 21:29:36;;;;;;;5.82;3.05;;;;;;;9.27;76.89;99679.88;5013178;28;20521;-79
2024/01/07 21:32:30;;;;;;;8.57;3.78;;;;;;;9.14;78.02;99686.38;5029054;28;20415;-80
2024/01/07 21:35:21;;;;;;;6.63;3.58;;;;;;;9.44;76.89;99682.44;4996749;28;20041;-79
2024/01/07 21:38:16;;;;;;;5.10;2.70;;;;;;;9.54;75.62;99691.31;5026392;28;20053;-80
2024/01/07 21:41:08;;;;;;;7.53;3.93;;;;;;;9.70;74.14;99687.59;5017341;28;20082;-80
2024/01/07 21:43:58;;;;;;;5.35;3.75;;;;;;;9.51;76.43;99695.47;5016444;28;20272;-80
2024/01/07 21:46:53;;;;;;;5.35;3.50;;;;;;;9.49;75.03;99703.16;5018006;28;20058;-79
2024/01/07 21:49:52;;;;;;;5.23;2.40;;;;;;;9.45;76.39;99699.50;5018643;28;20061;-80
2024/01/07 21:52:50;;;;;;;5.38;2.78;;;;;;;9.68;75.32;99700.75;5026093;28;20284;-80
2024/01/07 21:55:39;;;;;;;3.63;2.30;;;;;;;9.82;75.15;99703.16;5032628;28;20045;-80
2024/01/07 21:58:29;;;;;;;7.45;3.25;;;;;;;9.82;75.01;99698.53;5019951;28;20057;-80
2024/01/07 22:01:21;;;;;;;5.30;2.90;;;;;;;9.91;74.76;99705.78;5004181;28;20046;-80
2024/01/07 22:04:14;;;;;;;4.13;2.60;;;;;;;9.93;74.98;99712.47;4995341;28;20134;-80
2024/01/07 22:07:03;;;;;;;4.47;3.03;;;;;;;9.95;75.00;99712.94;5009238;28;20537;-80
2024/01/07 22:09:58;;;;;;;11.18;6.32;;;;;;;10.00;74.94;99699.16;5011333;28;20426;-80
2024/01/07 22:12:52;;;;;;;3.77;2.60;;;;;;;10.04;74.04;99705.50;5002220;28;20042;-81
2024/01/07 22:15:44;;;;;;;5.68;2.90;;;;;;;9.94;74.01;99702.41;5022047;28;20047;-80
2024/01/07 22:18:36;;;;;;;3.60;2.78;;;;;;;9.92;74.39;99705.44;5014420;28;20061;-79
2024/01/07 22:21:30;;;;;;;5.03;2.58;;;;;;;10.03;73.82;99714.75;4992364;28;20045;-79
2024/01/07 22:24:22;;;;;;;4.43;1.70;;;;;;;10.06;72.85;99714.06;5006008;28;20041;-80
2024/01/07 22:27:14;;;;;;;4.15;2.50;;;;;;;9.47;74.47;99721.69;5005697;28;20037;-79
2024/01/07 22:30:08;;;;;;;4.80;3.00;;;;;;;9.55;75.83;99723.50;4998634;28;20061;-80
2024/01/07 22:33:00;;;;;;;5.32;3.05;;;;;;;9.73;75.65;99721.44;4994649;28;20414;-79
2024/01/07 22:35:57;;;;;;;6.05;3.50;;;;;;;9.85;74.01;99725.00;4993956;28;20054;-79
2024/01/07 22:38:52;;;;;;;4.63;2.90;;;;;;;9.85;73.32;99735.09;4997894;28;20545;-79
2024/01/07 22:41:47;;;;;;;8.07;2.25;;;;;;;9.89;74.28;99730.56;4993713;28;20045;-80
2024/01/07 22:44:41;;;;;;;3.17;2.38;;;;;;;9.98;74.68;99735.91;5004595;28;20053;-80
2024/01/07 22:47:36;;;;;;;7.73;3.50;;;;;;;9.94;75.16;99733.06;4996413;28;20041;-81
2024/01/07 22:50:31;;;;;;;4.32;1.90;;;;;;;10.01;74.99;99741.44;4994118;28;20041;-79
2024/01/07 22:53:25;;;;;;;5.87;3.30;;;;;;;9.41;75.76;99745.50;4997399;28;20403;-80
2024/01/07 22:56:20;;;;;;;5.28;3.03;;;;;;;8.97;78.34;99743.41;5015945;28;20327;-79
2024/01/07 22:59:15;;;;;;;4.10;2.50;;;;;;;9.24;79.30;99742.13;5011331;28;20049;-79
2024/01/07 23:02:10;;;;;;;4.03;2.35;;;;;;;9.61;78.40;99745.81;5017234;28;20049;-80
2024/01/07 23:05:04;;;;;;;5.10;2.42;;;;;;;9.78;77.44;99749.19;5011355;28;20060;-80
2024/01/07 23:07:59;;;;;;;6.27;3.27;;;;;;;9.89;75.82;99757.72;5016476;28;20418;-79
2024/01/07 23:10:53;;;;;;;2.83;2.07;;;;;;;9.94;75.50;99756.72;5027443;28;20053;-79
2024/01/07 23:13:48;;;;;;;3.17;2.38;;;;;;;9.96;75.16;99763.38;5015530;28;20521;-79
2024/01/07 23:16:40;;;;;;;4.57;2.83;;;;;;;9.95;75.40;99767.25;5015732;28;20049;-80
2024/01/07 23:19:34;;;;;;;5.55;2.83;;;;;;;9.98;75.25;99769.28;5013619;28;20523;-79
2024/01/07 23:22:29;;;;;;;2.90;2.28;;;;;;;9.97;76.37;99764.97;5016491;28;20605;-79
2024/01/07 23:25:18;;;;;;;4.80;2.60;;;;;;;9.41;78.04;99774.56;5011425;28;20053;-80
2024/01/07 23:28:13;;;;;;;5.88;3.42;;;;;;;9.67;76.96;99772.44;5012429;28;20049;-80
2024/01/07 23:31:05;;;;;;;8.35;2.40;;;;;;;9.81;77.00;99769.44;5030341;28;20053;-79
2024/01/07 23:34:00;;;;;;;4.05;2.42;;;;;;;9.89;76.86;99776.72;5014981;28;20121;-80
2024/01/07 23:36:55;;;;;;;5.32;3.03;;;;;;;9.92;76.19;99767.91;5009672;28;20742;-79
2024/01/07 23:39:49;;;;;;;7.03;3.83;;;;;;;9.95;75.36;99764.53;5014678;28;20045;-79
2024/01/07 23:42:43;;;;;;;5.25;3.63;;;;;;;9.98;74.24;99763.06;5026741;28;20049;-80
2024/01/07 23:45:35;;;;;;;7.47;2.80;;;;;;;9.97;73.92;99764.97;5004104;28;20049;-80
2024/01/07 23:48:30;;;;;;;3.50;2.58;;;;;;;9.98;73.51;99760.34;5017209;28;20037;-79
2024/01/07 23:51:20;;;;;;;4.67;2.90;;;;;;;9.99;73.23;99764.66;5033344;28;20049;-80
2024/01/07 23:54:10;;;;;;;7.18;3.90;;;;;;;10.05;74.44;99772.28;5017381;28;20272;-80
2024/01/07 23:57:04;;;;;;;8.90;3.85;;;;;;;9.80;75.47;99776.03;5016600;28;20049;-80
2024/01/07 23:59:54;;;;;;;12.33;6.30;;;;;;;9.75;75.66;99770.78;5019737;28;20533;-78
